»·PEaware :: QXE2148 KPDX-KSEA

QXE2148 :: KPDX-KSEA

FLIGHT INFORMATION

Flight Status: Arrived
Operator:
Horizon Air
More flights by this operator :: More flights under this callsign
Pilot: Charles D. (23067)
Aircraft: EMBRAER EMB-170/175
(E170)
More flights by this aircraft type
Origin: KPDX Portland Intl
United States
Destination: KSEA Seattle-Tacoma Intl
United States
More flights between these airports :: More routes between these airports
Route: +PTLD1 COUGA KRIEG HAWKZ7
File this flight plan on PilotEdge
Remarks: RMK / SIMBRIEF
Altitude:
(Current/Filed)
20,000ft
Speed:
(Current/Filed)
357kts
Departed: 17-Dec-19 09:11 AM
Arrived: 17-Dec-19 09:44 AM
Distance/Time
Traveled:
112nm/0:33
Distance/Time
To Go:
Arrived

Flight Plot

Page will automatically refresh every two minutes.

Flight plan parsing failed; only flown route is shown


Map Options




Map Legend


Flown Route
Filed Route
Departure Airport
Arrival Airport
Navaid (VOR, NDB)
Fix

Horizontal Profiles

Position Reports

Time Latitude Longitude Heading Altitude Ground
Speed
17-Dec-19 08:57 45.587051 -122.593096 39 36ft 0kts
17-Dec-19 08:58 45.587051 -122.593096 39 36ft 0kts
17-Dec-19 08:59 45.587051 -122.593096 39 36ft 0kts
17-Dec-19 09:00 45.587051 -122.593096 39 36ft 0kts
17-Dec-19 09:01 45.587051 -122.593096 39 36ft 0kts
17-Dec-19 09:02 45.587051 -122.593096 39 36ft 0kts
17-Dec-19 09:03 45.587051 -122.593096 39 36ft 0kts
17-Dec-19 09:05 45.586952 -122.593672 243 36ft 0kts
17-Dec-19 09:06 45.587710 -122.596986 296 36ft 18kts
17-Dec-19 09:07 45.591027 -122.600844 40 36ft 19kts
17-Dec-19 09:08 45.594087 -122.597913 22 36ft 12kts
17-Dec-19 09:09 45.594388 -122.597569 44 36ft 0kts
17-Dec-19 09:10 45.591744 -122.587818 119 36ft 131kts
17-Dec-19 09:11 45.567706 -122.521138 117 2500ft 216kts
17-Dec-19 09:12 45.574022 -122.443014 18 5799ft 261kts
17-Dec-19 09:14 45.650342 -122.473389 340 9357ft 316kts
17-Dec-19 09:15 45.743110 -122.510497 340 13322ft 368kts
17-Dec-19 09:16 45.843492 -122.553492 338 14992ft 378kts
17-Dec-19 09:17 45.945508 -122.597742 338 14995ft 378kts
17-Dec-19 09:18 46.047860 -122.641998 338 18094ft 394kts
17-Dec-19 09:19 46.148355 -122.685170 341 20205ft 412kts
17-Dec-19 09:20 46.262018 -122.710728 347 20246ft 413kts
17-Dec-19 09:21 46.376853 -122.724171 354 20247ft 416kts
17-Dec-19 09:22 46.492392 -122.728386 354 20230ft 416kts
17-Dec-19 09:23 46.608484 -122.732576 354 20212ft 416kts
17-Dec-19 09:24 46.724640 -122.736711 356 20211ft 417kts
17-Dec-19 09:25 46.836429 -122.692517 31 20210ft 427kts
17-Dec-19 09:26 46.925329 -122.578425 32 20207ft 427kts
17-Dec-19 09:27 47.034132 -122.519965 13 18331ft 389kts
17-Dec-19 09:28 47.127180 -122.491622 3 15424ft 339kts
17-Dec-19 09:29 47.215455 -122.476240 2 12352ft 304kts
17-Dec-19 09:30 47.296497 -122.463937 5 9330ft 286kts
17-Dec-19 09:31 47.373435 -122.455392 359 7616ft 271kts
17-Dec-19 09:32 47.447124 -122.455335 359 6833ft 264kts
17-Dec-19 09:33 47.514838 -122.455453 359 6020ft 239kts
17-Dec-19 09:33 47.570800 -122.456363 359 5547ft 237kts
17-Dec-19 09:35 47.648047 -122.459084 359 4037ft 233kts
17-Dec-19 09:35 47.700453 -122.459347 14 4016ft 227kts
17-Dec-19 09:36 47.728092 -122.387141 84 4003ft 208kts
17-Dec-19 09:38 47.706321 -122.306179 169 3931ft 196kts
17-Dec-19 09:38 47.661187 -122.306042 180 4018ft 195kts
17-Dec-19 09:39 47.608516 -122.306302 179 3358ft 180kts
17-Dec-19 09:40 47.560157 -122.306535 177 2389ft 166kts
17-Dec-19 09:41 47.516753 -122.306387 182 1507ft 141kts
17-Dec-19 09:42 47.480928 -122.307322 180 780ft 123kts
17-Dec-19 09:43 47.451951 -122.307849 180 417ft 34kts
17-Dec-19 09:44 47.450092 -122.306552 91 411ft 6kts
17-Dec-19 09:45 47.449449 -122.302661 189 405ft 4kts
17-Dec-19 09:46 47.449342 -122.302687 190 404ft 0kts
17-Dec-19 09:47 47.449342 -122.302687 190 404ft 0kts
17-Dec-19 09:48 47.449342 -122.302687 190 404ft 0kts
17-Dec-19 09:49 47.449342 -122.302687 190 404ft 0kts
17-Dec-19 09:50 47.449342 -122.302687 190 404ft 0kts
17-Dec-19 09:51 47.449342 -122.302687 190 404ft 0kts
17-Dec-19 09:52 47.449342 -122.302687 190 404ft 0kts
17-Dec-19 09:53 47.449342 -122.302687 190 404ft 0kts
17-Dec-19 09:54 47.449342 -122.302687 190 404ft 0kts
17-Dec-19 09:55 47.449342 -122.302687 190 404ft 0kts
17-Dec-19 09:56 47.449342 -122.302687 190 404ft 0kts
17-Dec-19 09:57 47.449342 -122.302687 190 404ft 0kts

Navigation Log

Ident Type
Flight plan parsing failed, navigation log unavailable